Angora, Minnesota
Current Conditions -  °F | °C
As of 10:35 PM on Saturday 22 Nov 2014 (Local Time) from KCQM Reporting Station
Haze Haze  
Wind Chill: 26°   Ceiling: 700
Heat Index: 32°   Visibility: 4mi
Dew Point: 30°   Wind: 6mph
Humidity: 93%   Direction: 130°SE
Pressure: 29.48"   Gusts: NA
Location:  47.77°N, 92.63°W
Report Text: KCQM 230435Z AUTO 13005KT 4SM BR OVC007 00/M01 A2948 RMK AO2
Loading
Personal Weather Stations






























Interactive Weather Map New forecast layout! Learn more

10-Day Weather Forecast

Advertisements
Track Severe Weather on mobile